Time;durP1;ratioP1;P1;durP2;ratioP2;P2;SDS_P1;SDS_P2;PMS_P1;PMS_P2;Temp;Humidity;BMP_temperature;BMP_pressure;BME280_temperature;BME280_humidity;BME280_pressure;Samples;Min_cycle;Max_cycle;Signal;HPM_P1;HPM_P2
2021/07/18 00:00:59;;;;;;;19.55;15.43;;;;;;;;;;5034779;28;20034;-68
2021/07/18 00:03:25;;;;;;;24.30;15.40;;;;;;;;;;5036358;28;20037;-68
2021/07/18 00:05:51;;;;;;;19.80;15.75;;;;;;;;;;5035977;28;20470;-66
2021/07/18 00:08:17;;;;;;;18.52;15.25;;;;;;;;;;5034672;28;20051;-68
2021/07/18 00:10:44;;;;;;;21.83;16.70;;;;;;;;;;5035876;28;20068;-68
2021/07/18 00:13:10;;;;;;;17.85;15.15;;;;;;;;;;5034548;28;20363;-68
2021/07/18 00:15:36;;;;;;;23.05;15.65;;;;;;;;;;5035819;28;20025;-67
2021/07/18 00:18:02;;;;;;;21.65;15.80;;;;;;;;;;5034949;28;20478;-66
2021/07/18 00:20:29;;;;;;;18.40;15.43;;;;;;;;;;5033762;28;20063;-66
2021/07/18 00:22:55;;;;;;;22.45;14.63;;;;;;;;;;5035716;28;20053;-67
2021/07/18 00:25:21;;;;;;;18.58;13.30;;;;;;;;;;5035659;28;20024;-67
2021/07/18 00:27:47;;;;;;;17.13;14.98;;;;;;;;;;5034239;28;20432;-66
2021/07/18 00:30:14;;;;;;;22.48;16.10;;;;;;;;;;5035596;28;20035;-67
2021/07/18 00:32:42;;;;;;;20.13;15.68;;;;;;;;;;5035554;28;20025;-67
2021/07/18 00:35:09;;;;;;;19.15;15.13;;;;;;;;;;5034380;28;20033;-67
2021/07/18 00:37:35;;;;;;;24.13;14.82;;;;;;;;;;5035374;28;20030;-68
2021/07/18 00:40:01;;;;;;;16.85;13.13;;;;;;;;;;5035372;28;20538;-69
2021/07/18 00:42:27;;;;;;;18.02;14.48;;;;;;;;;;5035372;28;20078;-67
2021/07/18 00:44:54;;;;;;;17.88;15.23;;;;;;;;;;5033983;28;20026;-68
2021/07/18 00:47:21;;;;;;;20.17;15.80;;;;;;;;;;5033721;28;20080;-67
2021/07/18 00:49:48;;;;;;;20.60;16.90;;;;;;;;;;5035186;28;20029;-68
2021/07/18 00:52:14;;;;;;;17.92;16.05;;;;;;;;;;5035145;28;20096;-67
2021/07/18 00:54:40;;;;;;;19.77;16.08;;;;;;;;;;5035087;28;20072;-67
2021/07/18 00:57:07;;;;;;;22.05;17.27;;;;;;;;;;5034987;28;20117;-67
2021/07/18 00:59:33;;;;;;;23.63;18.38;;;;;;;;;;5035005;28;20029;-68
2021/07/18 01:02:00;;;;;;;20.17;17.20;;;;;;;;;;5034904;28;20108;-65
2021/07/18 01:04:27;;;;;;;20.52;17.38;;;;;;;;;;5034719;28;20095;-67
2021/07/18 01:06:53;;;;;;;20.25;16.23;;;;;;;;;;5034845;28;20025;-66
2021/07/18 01:09:20;;;;;;;22.55;16.50;;;;;;;;;;5034818;28;20060;-66
2021/07/18 01:11:46;;;;;;;23.35;17.73;;;;;;;;;;5034741;28;20022;-67
2021/07/18 01:14:13;;;;;;;19.40;16.10;;;;;;;;;;5033521;28;20029;-65
2021/07/18 01:16:39;;;;;;;22.90;16.73;;;;;;;;;;5034429;28;20116;-67
2021/07/18 01:19:06;;;;;;;21.98;16.60;;;;;;;;;;5034278;28;20098;-69
2021/07/18 01:21:34;;;;;;;22.88;17.23;;;;;;;;;;5034849;28;20079;-66
2021/07/18 01:24:00;;;;;;;23.88;16.80;;;;;;;;;;5033190;28;20033;-65
2021/07/18 01:26:27;;;;;;;17.13;15.32;;;;;;;;;;5033144;28;20032;-65
2021/07/18 01:28:53;;;;;;;20.58;15.25;;;;;;;;;;5034419;28;20022;-66
2021/07/18 01:31:20;;;;;;;19.98;15.63;;;;;;;;;;5033646;28;20113;-66
2021/07/18 01:33:46;;;;;;;22.25;16.77;;;;;;;;;;5034322;28;20097;-65
2021/07/18 01:36:13;;;;;;;19.00;16.83;;;;;;;;;;5034275;28;20481;-66
2021/07/18 01:38:39;;;;;;;22.85;16.67;;;;;;;;;;5034205;28;20025;-67
2021/07/18 01:41:05;;;;;;;21.48;15.98;;;;;;;;;;5033955;28;20021;-67
2021/07/18 01:43:31;;;;;;;20.30;16.08;;;;;;;;;;5034143;28;20108;-67
2021/07/18 01:45:58;;;;;;;20.92;16.25;;;;;;;;;;5033928;28;20049;-68
2021/07/18 01:48:24;;;;;;;22.83;14.38;;;;;;;;;;5032724;28;20478;-68
2021/07/18 01:50:50;;;;;;;18.25;16.33;;;;;;;;;;5032690;28;20486;-67
2021/07/18 01:53:16;;;;;;;20.90;15.77;;;;;;;;;;5033956;28;20101;-69
2021/07/18 01:55:42;;;;;;;19.02;16.90;;;;;;;;;;5033573;28;20017;-67
2021/07/18 01:58:12;;;;;;;21.35;16.65;;;;;;;;;;5033916;28;20434;-69
2021/07/18 02:00:38;;;;;;;20.80;15.65;;;;;;;;;;5033843;28;20017;-67
2021/07/18 02:03:05;;;;;;;23.23;16.42;;;;;;;;;;5032466;28;20043;-67
2021/07/18 02:05:31;;;;;;;20.98;17.15;;;;;;;;;;5033840;28;20762;-69
2021/07/18 02:07:57;;;;;;;20.40;17.25;;;;;;;;;;5034021;28;20032;-67
2021/07/18 02:10:24;;;;;;;21.63;16.70;;;;;;;;;;5033677;28;20532;-67
2021/07/18 02:12:50;;;;;;;19.88;16.20;;;;;;;;;;5033588;28;20186;-68
2021/07/18 02:15:18;;;;;;;18.48;16.40;;;;;;;;;;5032374;28;20033;-68
2021/07/18 02:17:44;;;;;;;18.33;16.42;;;;;;;;;;5033528;28;20036;-68
2021/07/18 02:20:12;;;;;;;18.38;16.25;;;;;;;;;;5033765;28;20034;-66
2021/07/18 02:22:42;;;;;;;20.25;17.00;;;;;;;;;;5033473;28;20061;-68
2021/07/18 02:25:09;;;;;;;24.42;17.40;;;;;;;;;;5033564;28;20037;-66
2021/07/18 02:27:35;;;;;;;23.65;17.65;;;;;;;;;;5033404;28;20489;-67
2021/07/18 02:30:01;;;;;;;19.58;17.50;;;;;;;;;;5033323;28;20026;-67
2021/07/18 02:32:27;;;;;;;22.75;17.63;;;;;;;;;;5033334;28;20111;-68
2021/07/18 02:34:53;;;;;;;28.67;18.23;;;;;;;;;;5033301;28;20029;-67
2021/07/18 02:37:20;;;;;;;21.85;18.55;;;;;;;;;;5033447;28;20033;-68
2021/07/18 02:39:46;;;;;;;21.40;16.45;;;;;;;;;;5031906;28;20552;-68
2021/07/18 02:42:13;;;;;;;18.98;15.93;;;;;;;;;;5032466;28;20029;-67
2021/07/18 02:44:39;;;;;;;19.73;15.38;;;;;;;;;;5033266;28;20025;-69
2021/07/18 02:47:05;;;;;;;20.05;14.88;;;;;;;;;;5032717;28;20129;-68
2021/07/18 02:49:32;;;;;;;22.58;16.73;;;;;;;;;;5031767;28;20033;-69
2021/07/18 02:51:59;;;;;;;18.42;16.08;;;;;;;;;;5031509;28;20045;-67
2021/07/18 02:54:25;;;;;;;21.42;16.23;;;;;;;;;;5031791;28;20112;-68
2021/07/18 02:56:51;;;;;;;19.50;16.05;;;;;;;;;;5033047;28;20040;-69
2021/07/18 02:59:18;;;;;;;19.67;16.38;;;;;;;;;;5032997;28;20065;-68
2021/07/18 03:01:44;;;;;;;24.17;16.42;;;;;;;;;;5032974;28;20028;-69
2021/07/18 03:04:10;;;;;;;21.02;16.90;;;;;;;;;;5033273;28;20067;-69
2021/07/18 03:06:36;;;;;;;17.90;15.70;;;;;;;;;;5032924;28;20033;-68
2021/07/18 03:09:03;;;;;;;16.52;14.82;;;;;;;;;;5032880;28;20034;-69
2021/07/18 03:11:29;;;;;;;21.67;16.17;;;;;;;;;;5033090;28;20049;-68
2021/07/18 03:13:55;;;;;;;23.42;17.15;;;;;;;;;;5032917;28;20097;-67
2021/07/18 03:16:21;;;;;;;24.67;17.65;;;;;;;;;;5032893;28;20053;-68
2021/07/18 03:18:48;;;;;;;18.45;15.98;;;;;;;;;;5032775;28;20064;-68
2021/07/18 03:21:14;;;;;;;21.17;15.77;;;;;;;;;;5033105;28;20018;-68
2021/07/18 03:23:40;;;;;;;23.02;17.55;;;;;;;;;;5032792;28;20033;-68
2021/07/18 03:26:07;;;;;;;21.20;17.73;;;;;;;;;;5033056;28;20013;-67
2021/07/18 03:28:33;;;;;;;20.60;16.58;;;;;;;;;;5032758;28;20466;-69
2021/07/18 03:30:59;;;;;;;24.38;18.42;;;;;;;;;;5032707;28;20029;-68
2021/07/18 03:33:25;;;;;;;25.60;18.55;;;;;;;;;;5031388;28;20072;-67
2021/07/18 03:35:52;;;;;;;25.33;20.65;;;;;;;;;;5032684;28;20017;-68
2021/07/18 03:38:19;;;;;;;26.98;18.83;;;;;;;;;;5032652;28;20029;-67
2021/07/18 03:40:45;;;;;;;24.75;17.98;;;;;;;;;;5032639;28;20028;-67
2021/07/18 03:43:11;;;;;;;28.02;20.35;;;;;;;;;;5032572;28;20136;-69
2021/07/18 03:45:38;;;;;;;22.90;18.27;;;;;;;;;;5032327;28;20026;-66
2021/07/18 03:48:04;;;;;;;24.90;18.58;;;;;;;;;;5031356;28;20034;-66
2021/07/18 03:50:30;;;;;;;23.98;17.48;;;;;;;;;;5031232;28;20095;-68
2021/07/18 03:52:56;;;;;;;24.95;19.38;;;;;;;;;;5033151;28;20075;-68
2021/07/18 03:55:23;;;;;;;23.88;19.42;;;;;;;;;;5036564;28;20022;-67
2021/07/18 03:57:49;;;;;;;21.67;19.08;;;;;;;;;;5034488;28;20036;-69
2021/07/18 04:00:16;;;;;;;22.02;18.77;;;;;;;;;;5034839;28;20168;-66
2021/07/18 04:02:43;;;;;;;21.08;18.25;;;;;;;;;;5036098;28;20018;-68
2021/07/18 04:05:09;;;;;;;21.05;16.42;;;;;;;;;;5036153;28;20079;-66
2021/07/18 04:07:36;;;;;;;21.17;18.23;;;;;;;;;;5036025;28;20111;-66
2021/07/18 04:10:03;;;;;;;23.42;18.77;;;;;;;;;;5035962;28;20033;-67
2021/07/18 04:12:29;;;;;;;21.52;17.98;;;;;;;;;;5035923;28;20030;-65
2021/07/18 04:14:56;;;;;;;20.90;18.75;;;;;;;;;;5035627;28;20026;-66
2021/07/18 04:17:22;;;;;;;20.52;18.35;;;;;;;;;;5034478;28;20432;-68
2021/07/18 04:19:48;;;;;;;20.45;17.88;;;;;;;;;;5035786;28;20021;-67
2021/07/18 04:22:14;;;;;;;20.23;18.13;;;;;;;;;;5035732;28;20037;-67
2021/07/18 04:24:40;;;;;;;20.58;18.25;;;;;;;;;;5035688;28;20097;-68
2021/07/18 04:27:07;;;;;;;18.17;16.27;;;;;;;;;;5034258;28;20116;-68
2021/07/18 04:29:33;;;;;;;18.20;16.40;;;;;;;;;;5035838;28;20061;-69
2021/07/18 04:31:59;;;;;;;18.27;16.40;;;;;;;;;;5035516;28;20075;-67
2021/07/18 04:34:25;;;;;;;20.52;17.00;;;;;;;;;;5035202;28;20029;-70
2021/07/18 04:36:51;;;;;;;17.13;15.38;;;;;;;;;;5035419;28;20343;-68
2021/07/18 04:39:18;;;;;;;16.65;14.98;;;;;;;;;;5035121;28;20037;-68
2021/07/18 04:41:44;;;;;;;23.67;16.00;;;;;;;;;;5035326;28;20493;-68
2021/07/18 04:44:10;;;;;;;20.45;16.45;;;;;;;;;;5034060;28;20116;-68
2021/07/18 04:46:36;;;;;;;19.48;16.48;;;;;;;;;;5034886;28;20050;-68
2021/07/18 04:49:03;;;;;;;22.83;18.45;;;;;;;;;;5035263;28;20074;-68
2021/07/18 04:51:29;;;;;;;19.55;15.82;;;;;;;;;;5034904;28;20116;-67
2021/07/18 04:53:55;;;;;;;20.33;18.20;;;;;;;;;;5033767;28;20553;-68
2021/07/18 04:56:21;;;;;;;18.65;16.77;;;;;;;;;;5034881;28;20025;-67
2021/07/18 04:58:48;;;;;;;17.55;15.55;;;;;;;;;;5033673;28;20116;-68
2021/07/18 05:01:14;;;;;;;17.48;14.45;;;;;;;;;;5035085;28;20165;-67
2021/07/18 05:03:40;;;;;;;23.25;16.15;;;;;;;;;;5034889;28;20033;-67
2021/07/18 05:06:07;;;;;;;20.83;16.33;;;;;;;;;;5034181;28;20128;-68
2021/07/18 05:08:33;;;;;;;19.27;16.75;;;;;;;;;;5034878;28;20061;-67
2021/07/18 05:11:00;;;;;;;19.15;14.20;;;;;;;;;;5034789;28;20113;-68
2021/07/18 05:13:26;;;;;;;18.65;15.23;;;;;;;;;;5035048;28;20541;-67
2021/07/18 05:15:53;;;;;;;22.95;17.35;;;;;;;;;;5034734;28;20026;-69
2021/07/18 05:18:19;;;;;;;20.70;15.73;;;;;;;;;;5034576;28;20069;-68
2021/07/18 05:20:45;;;;;;;20.45;16.42;;;;;;;;;;5033294;28;20386;-69
2021/07/18 05:23:12;;;;;;;19.80;16.02;;;;;;;;;;5034572;28;20147;-69
2021/07/18 05:25:38;;;;;;;17.83;15.52;;;;;;;;;;5033217;28;20415;-67
2021/07/18 05:28:08;;;;;;;16.42;14.80;;;;;;;;;;5034189;28;20025;-67
2021/07/18 05:30:35;;;;;;;17.17;15.38;;;;;;;;;;5034518;28;20094;-67
2021/07/18 05:33:01;;;;;;;18.42;14.45;;;;;;;;;;5033037;28;20428;-66
2021/07/18 05:35:27;;;;;;;17.45;15.15;;;;;;;;;;5034320;28;20036;-69
2021/07/18 05:37:53;;;;;;;24.65;16.17;;;;;;;;;;5034188;28;20034;-67
2021/07/18 05:40:20;;;;;;;19.42;17.17;;;;;;;;;;5034273;28;20493;-69
2021/07/18 05:42:46;;;;;;;21.88;18.38;;;;;;;;;;5034188;28;20030;-67
2021/07/18 05:45:13;;;;;;;22.90;19.08;;;;;;;;;;5034100;28;20021;-70
2021/07/18 05:47:39;;;;;;;21.23;18.77;;;;;;;;;;5033692;28;20081;-68
2021/07/18 05:50:07;;;;;;;19.05;17.25;;;;;;;;;;5032455;28;20022;-70
2021/07/18 05:52:34;;;;;;;22.88;19.23;;;;;;;;;;5034086;28;20377;-69
2021/07/18 05:55:00;;;;;;;21.77;19.00;;;;;;;;;;5033719;28;20096;-70
2021/07/18 05:57:26;;;;;;;20.38;18.25;;;;;;;;;;5032594;28;20048;-69
2021/07/18 05:59:52;;;;;;;23.27;19.00;;;;;;;;;;5032624;28;20167;-69
2021/07/18 06:02:19;;;;;;;22.15;19.73;;;;;;;;;;5033665;28;20053;-69
2021/07/18 06:04:45;;;;;;;21.77;19.48;;;;;;;;;;5033871;28;20423;-68
2021/07/18 06:07:11;;;;;;;23.02;20.60;;;;;;;;;;5033787;28;20030;-68
2021/07/18 06:09:37;;;;;;;21.48;19.17;;;;;;;;;;5033977;28;20370;-69
2021/07/18 06:12:04;;;;;;;19.90;17.50;;;;;;;;;;5033722;28;20523;-69
2021/07/18 06:14:31;;;;;;;21.20;18.80;;;;;;;;;;5033667;28;20545;-67
2021/07/18 06:16:57;;;;;;;23.40;20.08;;;;;;;;;;5033656;28;20044;-69
2021/07/18 06:19:23;;;;;;;25.20;21.13;;;;;;;;;;5031921;28;20025;-68
2021/07/18 06:21:50;;;;;;;24.38;21.83;;;;;;;;;;5033775;28;20109;-69
2021/07/18 06:24:16;;;;;;;26.73;22.33;;;;;;;;;;5033703;28;20033;-69
2021/07/18 06:26:42;;;;;;;26.70;23.48;;;;;;;;;;5033470;28;20097;-66
2021/07/18 06:29:08;;;;;;;31.90;22.52;;;;;;;;;;5033385;28;20037;-70
2021/07/18 06:31:34;;;;;;;24.75;22.15;;;;;;;;;;5033392;28;20029;-67
2021/07/18 06:34:01;;;;;;;29.65;23.08;;;;;;;;;;5032003;28;20079;-70
2021/07/18 06:36:27;;;;;;;26.67;23.23;;;;;;;;;;5033074;28;20033;-69
2021/07/18 06:38:55;;;;;;;25.42;22.70;;;;;;;;;;5033149;28;20040;-70
2021/07/18 06:41:21;;;;;;;26.30;21.42;;;;;;;;;;5031880;28;20037;-69
2021/07/18 06:43:47;;;;;;;28.42;23.27;;;;;;;;;;5031860;28;20474;-68
2021/07/18 06:46:13;;;;;;;27.88;22.75;;;;;;;;;;5030862;28;20048;-68
2021/07/18 06:48:39;;;;;;;25.25;21.38;;;;;;;;;;5033407;28;20378;-69
2021/07/18 06:51:06;;;;;;;26.15;23.13;;;;;;;;;;5030965;28;20028;-69
2021/07/18 06:53:32;;;;;;;25.35;22.65;;;;;;;;;;5030932;28;20021;-69
2021/07/18 06:55:58;;;;;;;23.70;21.38;;;;;;;;;;5031538;28;20026;-70
2021/07/18 06:58:24;;;;;;;24.77;21.90;;;;;;;;;;5032950;28;20037;-70
2021/07/18 07:00:51;;;;;;;23.25;14.40;;;;;;;;;;5032995;28;20481;-70
2021/07/18 07:03:17;;;;;;;18.67;10.93;;;;;;;;;;5032982;28;20097;-72
2021/07/18 07:05:43;;;;;;;21.35;18.58;;;;;;;;;;5031621;28;20462;-74
2021/07/18 07:08:09;;;;;;;18.70;16.45;;;;;;;;;;5032944;28;20083;-72
2021/07/18 07:10:36;;;;;;;20.88;17.05;;;;;;;;;;5031634;28;20028;-72
2021/07/18 07:13:02;;;;;;;19.25;17.25;;;;;;;;;;5032838;28;20026;-71
2021/07/18 07:15:28;;;;;;;17.55;14.00;;;;;;;;;;5032847;28;20471;-72
2021/07/18 07:17:55;;;;;;;21.92;16.83;;;;;;;;;;5032833;28;20421;-73
2021/07/18 07:20:21;;;;;;;19.05;16.77;;;;;;;;;;5031526;28;20030;-71
2021/07/18 07:22:47;;;;;;;21.60;16.77;;;;;;;;;;5031514;28;20032;-72
2021/07/18 07:25:15;;;;;;;15.90;14.20;;;;;;;;;;5031527;28;20025;-72
2021/07/18 07:27:41;;;;;;;17.88;16.15;;;;;;;;;;5033051;28;20091;-72
2021/07/18 07:30:08;;;;;;;22.13;17.38;;;;;;;;;;5035401;28;20113;-71
2021/07/18 07:32:35;;;;;;;26.27;21.67;;;;;;;;;;5035314;28;20025;-72
2021/07/18 07:35:02;;;;;;;17.85;15.25;;;;;;;;;;5036573;28;20025;-68
2021/07/18 07:37:28;;;;;;;25.17;20.00;;;;;;;;;;5036465;28;20100;-72
2021/07/18 07:39:55;;;;;;;21.77;19.55;;;;;;;;;;5048041;28;20021;-71
2021/07/18 07:42:22;;;;;;;23.45;19.15;;;;;;;;;;5056401;28;20114;-72
2021/07/18 07:44:48;;;;;;;22.75;20.33;;;;;;;;;;5056581;28;20021;-72
2021/07/18 07:47:15;;;;;;;25.13;20.55;;;;;;;;;;5056314;28;20045;-73
2021/07/18 07:49:43;;;;;;;27.58;23.00;;;;;;;;;;5054742;28;20079;-71
2021/07/18 07:52:09;;;;;;;29.95;24.77;;;;;;;;;;5056269;28;20100;-72
2021/07/18 07:54:36;;;;;;;24.00;21.00;;;;;;;;;;5056212;28;20072;-72
2021/07/18 07:57:02;;;;;;;27.48;23.60;;;;;;;;;;5054865;28;20025;-72
2021/07/18 07:59:28;;;;;;;28.00;23.25;;;;;;;;;;5056023;28;20029;-73
2021/07/18 08:01:55;;;;;;;21.50;19.20;;;;;;;;;;5056356;28;20059;-73
2021/07/18 08:04:21;;;;;;;25.48;19.20;;;;;;;;;;5056029;28;20036;-72
2021/07/18 08:06:47;;;;;;;21.10;18.90;;;;;;;;;;5055989;28;20032;-72
2021/07/18 08:09:13;;;;;;;21.65;18.48;;;;;;;;;;5054626;28;20120;-71
2021/07/18 08:11:39;;;;;;;20.90;17.23;;;;;;;;;;5055593;28;20108;-70
2021/07/18 08:14:06;;;;;;;23.38;19.10;;;;;;;;;;5054564;28;20108;-72
2021/07/18 08:16:32;;;;;;;21.90;19.30;;;;;;;;;;5055489;28;20108;-71
2021/07/18 08:18:58;;;;;;;21.80;18.58;;;;;;;;;;5054116;28;20480;-71
2021/07/18 08:21:24;;;;;;;21.60;19.50;;;;;;;;;;5055440;28;20083;-71
2021/07/18 08:23:50;;;;;;;21.55;18.95;;;;;;;;;;5055930;28;20517;-71
2021/07/18 08:26:21;;;;;;;21.13;18.98;;;;;;;;;;5055597;28;20025;-69
2021/07/18 08:28:48;;;;;;;23.35;18.50;;;;;;;;;;5055645;28;20021;-71
2021/07/18 08:31:14;;;;;;;23.85;20.85;;;;;;;;;;5054177;28;20027;-73
2021/07/18 08:33:43;;;;;;;22.73;19.25;;;;;;;;;;5053947;28;20473;-72
2021/07/18 08:36:09;;;;;;;24.15;19.58;;;;;;;;;;5055430;28;20021;-72
2021/07/18 08:38:35;;;;;;;22.52;20.42;;;;;;;;;;5055478;28;20112;-73
2021/07/18 08:41:02;;;;;;;21.73;19.63;;;;;;;;;;5054109;28;20037;-72
2021/07/18 08:43:28;;;;;;;24.23;21.48;;;;;;;;;;5055292;28;20112;-72
2021/07/18 08:45:54;;;;;;;24.05;21.85;;;;;;;;;;5055011;28;20529;-72
2021/07/18 08:48:20;;;;;;;23.30;21.02;;;;;;;;;;5053936;28;20520;-72
2021/07/18 08:50:48;;;;;;;21.67;19.67;;;;;;;;;;5055181;28;20025;-73
2021/07/18 08:53:15;;;;;;;21.65;19.48;;;;;;;;;;5055161;28;20028;-72
2021/07/18 08:55:41;;;;;;;24.38;21.92;;;;;;;;;;5055002;28;20064;-73
2021/07/18 08:58:08;;;;;;;22.30;20.17;;;;;;;;;;5053771;28;20040;-72
2021/07/18 09:00:34;;;;;;;22.02;20.00;;;;;;;;;;5054704;28;20412;-72
2021/07/18 09:03:00;;;;;;;22.10;19.98;;;;;;;;;;5056632;28;20309;-72
2021/07/18 09:05:32;;;;;;;22.48;20.17;;;;;;;;;;5053244;28;20021;-73
2021/07/18 09:08:02;;;;;;;24.08;21.77;;;;;;;;;;5054497;28;20104;-72
2021/07/18 09:10:35;;;;;;;23.17;20.83;;;;;;;;;;5054956;28;20025;-72
2021/07/18 09:13:08;;;;;;;20.92;18.85;;;;;;;;;;5052243;28;20381;-71
2021/07/18 09:15:44;;;;;;;21.60;19.52;;;;;;;;;;5054006;28;20021;-72
2021/07/18 09:18:12;;;;;;;21.38;19.17;;;;;;;;;;5053199;28;20048;-73
2021/07/18 09:20:43;;;;;;;20.30;18.42;;;;;;;;;;5054393;28;20108;-72
2021/07/18 09:23:13;;;;;;;21.98;19.88;;;;;;;;;;5045589;28;20026;-73
2021/07/18 09:25:40;;;;;;;20.92;18.92;;;;;;;;;;5041318;28;20029;-72
2021/07/18 09:28:17;;;;;;;21.77;19.67;;;;;;;;;;5033083;28;20090;-70
2021/07/18 09:30:44;;;;;;;23.27;19.20;;;;;;;;;;5034461;28;20028;-71
2021/07/18 09:33:23;;;;;;;25.70;20.70;;;;;;;;;;5034289;28;20462;-72
2021/07/18 09:35:50;;;;;;;23.15;20.90;;;;;;;;;;5032962;28;20052;-71
2021/07/18 09:38:23;;;;;;;23.17;20.88;;;;;;;;;;5032840;28;20029;-73
2021/07/18 09:40:56;;;;;;;22.40;20.13;;;;;;;;;;5032773;28;20025;-74
2021/07/18 09:43:22;;;;;;;21.00;18.98;;;;;;;;;;5032820;28;20104;-72
2021/07/18 09:45:56;;;;;;;21.00;18.98;;;;;;;;;;5033861;28;20032;-73
2021/07/18 09:48:32;;;;;;;22.80;20.45;;;;;;;;;;5034062;28;20074;-70
2021/07/18 09:51:06;;;;;;;19.65;17.70;;;;;;;;;;5032277;28;20466;-70
2021/07/18 09:53:32;;;;;;;19.08;17.15;;;;;;;;;;5033506;28;20061;-71
2021/07/18 09:56:02;;;;;;;18.77;16.98;;;;;;;;;;5032601;28;20021;-69
2021/07/18 09:58:29;;;;;;;19.13;17.17;;;;;;;;;;5033389;28;20038;-69
2021/07/18 10:00:56;;;;;;;18.70;16.85;;;;;;;;;;5050112;28;20107;-70
2021/07/18 10:03:23;;;;;;;19.63;17.73;;;;;;;;;;5053589;28;20485;-72
2021/07/18 10:06:05;;;;;;;21.02;18.83;;;;;;;;;;5051937;28;20027;-71
2021/07/18 10:08:32;;;;;;;20.40;18.25;;;;;;;;;;5053508;28;20035;-70
2021/07/18 10:10:58;;;;;;;21.42;19.33;;;;;;;;;;5053592;28;20424;-71
2021/07/18 10:13:24;;;;;;;20.33;18.35;;;;;;;;;;5053466;28;20524;-70
2021/07/18 10:15:51;;;;;;;22.08;19.88;;;;;;;;;;5053438;28;20025;-70
2021/07/18 10:18:18;;;;;;;22.30;20.10;;;;;;;;;;5053508;28;20119;-67
2021/07/18 10:20:44;;;;;;;21.65;19.55;;;;;;;;;;5052982;28;20070;-69
2021/07/18 10:23:11;;;;;;;19.55;17.52;;;;;;;;;;5051943;28;20028;-70
2021/07/18 10:25:37;;;;;;;18.55;16.75;;;;;;;;;;5051806;28;20111;-70
2021/07/18 10:28:04;;;;;;;23.33;18.67;;;;;;;;;;5051837;28;20029;-68
2021/07/18 10:30:32;;;;;;;20.77;18.67;;;;;;;;;;5051753;28;20075;-69
2021/07/18 10:32:59;;;;;;;20.02;17.98;;;;;;;;;;5052781;28;20099;-69
2021/07/18 10:35:25;;;;;;;20.42;18.30;;;;;;;;;;5053040;28;20082;-70
2021/07/18 10:37:53;;;;;;;19.05;17.25;;;;;;;;;;5052866;28;20029;-70
2021/07/18 10:40:23;;;;;;;18.90;17.00;;;;;;;;;;5051533;28;20025;-69
2021/07/18 10:42:50;;;;;;;18.30;16.20;;;;;;;;;;5053158;28;20021;-68
2021/07/18 10:45:23;;;;;;;18.77;16.88;;;;;;;;;;5053142;28;20078;-69
2021/07/18 10:48:01;;;;;;;19.77;17.83;;;;;;;;;;5053194;28;20482;-68
2021/07/18 10:50:47;;;;;;;19.05;17.27;;;;;;;;;;5052735;28;20025;-69
2021/07/18 10:53:16;;;;;;;17.30;15.60;;;;;;;;;;5053009;28;20489;-68
2021/07/18 10:55:42;;;;;;;20.13;16.25;;;;;;;;;;5052619;28;20025;-69
2021/07/18 10:58:08;;;;;;;19.00;16.13;;;;;;;;;;5051621;28;20032;-68
2021/07/18 11:00:34;;;;;;;17.23;15.52;;;;;;;;;;5051737;28;20432;-68
2021/07/18 11:03:04;;;;;;;15.23;13.90;;;;;;;;;;5052169;28;20095;-68
2021/07/18 11:05:39;;;;;;;16.35;14.63;;;;;;;;;;5051571;28;20032;-69
2021/07/18 11:08:06;;;;;;;12.73;11.63;;;;;;;;;;5052910;28;20167;-68
2021/07/18 11:10:46;;;;;;;14.95;12.57;;;;;;;;;;5052555;28;20507;-68
2021/07/18 11:13:12;;;;;;;14.95;13.40;;;;;;;;;;5052802;28;20087;-71
2021/07/18 11:15:39;;;;;;;17.55;15.85;;;;;;;;;;5052990;28;20104;-69
2021/07/18 11:18:09;;;;;;;18.17;16.38;;;;;;;;;;5052722;28;20036;-70
2021/07/18 11:20:40;;;;;;;18.70;16.80;;;;;;;;;;5052741;28;20024;-69
2021/07/18 11:23:07;;;;;;;18.35;16.48;;;;;;;;;;5052425;28;20063;-69
2021/07/18 11:25:45;;;;;;;17.00;15.30;;;;;;;;;;5052210;28;20029;-70
2021/07/18 11:28:53;;;;;;;18.90;16.15;;;;;;;;;;5052627;28;20040;-69
2021/07/18 11:31:23;;;;;;;17.33;15.63;;;;;;;;;;5049567;28;20551;-68
2021/07/18 11:33:50;;;;;;;;;;;;;;;;;;5053069;28;20061;-69
2021/07/18 11:36:23;;;;;;;19.80;17.70;;;;;;;;;;5052332;28;20332;-68
2021/07/18 11:38:50;;;;;;;20.02;17.92;;;;;;;;;;5052595;28;20037;-70
2021/07/18 11:41:23;;;;;;;21.17;18.35;;;;;;;;;;5052580;28;20021;-68
2021/07/18 11:43:50;;;;;;;20.80;18.10;;;;;;;;;;5052551;28;20021;-69
2021/07/18 11:46:18;;;;;;;20.70;18.60;;;;;;;;;;5052394;28;20052;-69
2021/07/18 11:48:46;;;;;;;20.13;18.02;;;;;;;;;;5049782;28;20025;-68
2021/07/18 11:51:13;;;;;;;22.30;18.23;;;;;;;;;;5031829;28;20013;-71
2021/07/18 11:53:43;;;;;;;24.30;18.65;;;;;;;;;;5032328;28;20021;-69
2021/07/18 11:56:20;;;;;;;22.63;19.25;;;;;;;;;;5032585;28;20029;-69
2021/07/18 11:58:46;;;;;;;20.27;17.98;;;;;;;;;;5032476;28;20133;-71
2021/07/18 12:01:12;;;;;;;20.83;18.30;;;;;;;;;;5032582;28;20030;-69
2021/07/18 12:03:38;;;;;;;19.10;16.05;;;31.80;81.70;;;;;;5032392;28;20018;-68
2021/07/18 12:06:04;;;;;;;18.27;16.10;;;33.10;79.10;;;;;;5032443;28;20424;-69
2021/07/18 12:08:34;;;;;;;18.95;17.15;;;33.90;75.00;;;;;;5032710;28;20048;-69
2021/07/18 12:11:02;;;;;;;18.77;16.67;;;34.20;73.40;;;;;;5032136;28;20021;-68
2021/07/18 12:13:37;;;;;;;17.90;16.23;;;34.60;71.60;;;;;;5032407;28;20064;-69
2021/07/18 12:16:05;;;;;;;25.58;19.02;;;33.30;74.40;;;;;;5035565;28;20525;-69
2021/07/18 12:18:31;;;;;;;23.35;20.67;;;33.10;74.10;;;;;;5046293;28;20064;-69
2021/07/18 12:21:16;;;;;;;21.70;19.42;;;31.30;80.90;;;;;;5047213;28;20021;-70
2021/07/18 12:23:42;;;;;;;21.80;18.55;;;;;;;;;;5050153;28;20100;-71
2021/07/18 12:26:08;;;;;;;22.52;20.23;;;;;;;;;;5172601;22;20060;-73
2021/07/18 12:28:34;;;;;;;24.10;21.25;;;;;;;;;;5035228;28;20117;-73
2021/07/18 12:31:04;;;;;;;22.35;20.08;;;;;;;;;;5035675;28;20373;-72
2021/07/18 12:33:31;;;;;;;25.45;22.88;;;;;;;;;;5035640;28;20029;-72
2021/07/18 12:36:02;;;;;;;24.20;21.67;;;31.00;84.90;;;;;;5035576;28;20028;-72
2021/07/18 12:38:28;;;;;;;27.90;22.90;;;31.30;83.50;;;;;;5035155;28;20384;-72
2021/07/18 12:41:00;;;;;;;24.85;21.90;;;32.40;82.10;;;;;;5035526;28;20030;-73
2021/07/18 12:43:26;;;;;;;21.95;19.60;;;33.40;78.50;;;;;;5033923;28;20036;-72
2021/07/18 12:45:52;;;;;;;22.10;19.65;;;34.10;76.30;;;;;;5035257;28;20033;-73
2021/07/18 12:48:25;;;;;;;20.65;18.77;;;34.30;76.00;;;;;;5033994;28;20120;-72
2021/07/18 12:50:52;;;;;;;17.48;15.73;;;35.10;72.50;;;;;;5035309;28;20493;-71
2021/07/18 12:53:19;;;;;;;18.25;14.38;;;35.00;71.10;;;;;;5035322;28;20025;-71
2021/07/18 12:55:59;;;;;;;21.38;19.08;;;34.80;71.00;;;;;;5035199;28;20033;-74
2021/07/18 12:58:34;;;;;;;21.08;18.95;;;35.50;72.60;;;;;;5033795;28;20381;-72
2021/07/18 13:01:12;;;;;;;19.95;18.08;;;35.80;71.20;;;;;;5035218;28;20457;-71
2021/07/18 13:03:41;;;;;;;19.38;17.52;;;36.50;68.10;;;;;;5035122;28;20072;-71
2021/07/18 13:06:18;;;;;;;18.73;17.08;;;35.50;70.70;;;;;;5034576;28;20029;-71
2021/07/18 13:08:47;;;;;;;17.85;15.95;;;34.30;70.90;;;;;;5034760;28;20029;-70
2021/07/18 13:11:30;;;;;;;17.58;15.73;;;;;;;;;;5035002;28;20021;-71
2021/07/18 13:13:57;;;;;;;16.90;15.25;;;;;;;;;;5033417;28;20026;-71
2021/07/18 13:16:33;;;;;;;17.70;15.80;;;;;;;;;;5034795;28;20461;-71
2021/07/18 13:19:10;;;;;;;19.73;17.65;;;;;;;;;;5034694;28;20072;-72
2021/07/18 13:21:37;;;;;;;22.48;20.17;;;;;;;;;;5034836;28;20469;-72
2021/07/18 13:24:03;;;;;;;20.38;17.58;;;;;;;;;;5034665;28;20040;-71
2021/07/18 13:26:35;;;;;;;17.48;15.65;;;;;;;;;;5033742;28;20092;-76
2021/07/18 13:29:15;;;;;;;22.20;18.30;;;;;;;;;;5034593;28;20047;-73
2021/07/18 13:31:41;;;;;;;20.77;18.50;;;;;;;;;;5033200;28;20485;-70
2021/07/18 13:34:08;;;;;;;24.92;19.48;;;;;;;;;;5034033;28;20032;-71
2021/07/18 13:36:34;;;;;;;30.02;20.42;;;;;;;;;;5034405;28;20497;-70
2021/07/18 13:39:14;;;;;;;28.67;19.58;;;;;;;;;;5034283;28;20041;-69
2021/07/18 13:41:41;;;;;;;27.42;19.05;;;;;;;;;;5034306;28;20473;-69
2021/07/18 13:44:09;;;;;;;32.58;19.33;;;;;;;;;;5034285;28;20033;-70
2021/07/18 13:46:35;;;;;;;22.90;14.30;;;;;;;;;;5034291;28;20469;-71
2021/07/18 13:49:01;;;;;;;22.27;12.30;;;;;;;;;;5034153;28;20033;-71
2021/07/18 13:51:29;;;;;;;14.85;8.65;;;;;;;;;;5034181;28;20036;-70
2021/07/18 13:53:56;;;;;;;13.82;6.28;;;;;;;;;;5033631;28;20358;-69
2021/07/18 13:56:22;;;;;;;12.23;6.13;;;;;;;;;;5034045;28;20025;-69
2021/07/18 13:58:49;;;;;;;12.80;7.15;;;;;;;;;;5033640;28;20064;-70
2021/07/18 14:01:15;;;;;;;12.38;6.53;;;;;;;;;;5033972;28;20017;-70
2021/07/18 14:03:41;;;;;;;9.10;4.65;;;;;;;;;;5033928;28;20487;-71
2021/07/18 14:06:08;;;;;;;15.05;6.57;;;;;;;;;;5033897;28;20099;-71
2021/07/18 14:08:34;;;;;;;12.80;4.15;;;;;;;;;;5033812;28;20137;-69
2021/07/18 14:11:00;;;;;;;12.45;5.55;;;;;;;;;;5032468;28;20029;-70